createdAt,value
2023-02-18T00:01:43.556Z,0.76
2023-02-18T00:04:12.715Z,0.77
2023-02-18T00:06:42.261Z,0.80
2023-02-18T00:09:11.189Z,0.83
2023-02-18T00:11:39.900Z,0.86
2023-02-18T00:14:12.391Z,0.87
2023-02-18T00:16:41.553Z,0.88
2023-02-18T00:19:16.251Z,0.89
2023-02-18T00:21:44.670Z,0.90
2023-02-18T00:24:18.287Z,0.90
2023-02-18T00:26:46.712Z,0.92
2023-02-18T00:29:15.421Z,0.93
2023-02-18T00:31:46.288Z,0.94
2023-02-18T00:34:14.883Z,0.93
2023-02-18T00:36:43.471Z,0.91
2023-02-18T00:39:12.870Z,0.92
2023-02-18T00:41:42.258Z,0.92
2023-02-18T00:44:11.986Z,0.91
2023-02-18T00:46:41.017Z,0.90
2023-02-18T00:49:09.771Z,0.91
2023-02-18T00:51:38.314Z,0.92
2023-02-18T00:54:06.538Z,0.92
2023-02-18T00:56:35.040Z,0.92
2023-02-18T00:59:03.644Z,0.93
2023-02-18T01:01:31.923Z,0.94
2023-02-18T01:04:00.154Z,0.95
2023-02-18T01:06:28.502Z,0.96
2023-02-18T01:08:56.804Z,0.98
2023-02-18T01:11:25.575Z,0.98
2023-02-18T01:13:54.116Z,0.98
2023-02-18T01:16:24.020Z,1.00
2023-02-18T01:18:53.826Z,1.02
2023-02-18T01:21:21.993Z,1.03
2023-02-18T01:23:50.510Z,1.04
2023-02-18T01:26:19.223Z,1.04
2023-02-18T01:28:48.311Z,1.06
2023-02-18T01:31:17.048Z,1.08
2023-02-18T01:33:46.498Z,1.10
2023-02-18T01:36:15.215Z,1.12
2023-02-18T01:38:43.481Z,1.12
2023-02-18T01:41:11.793Z,1.15
2023-02-18T01:43:40.174Z,1.16
2023-02-18T01:46:21.325Z,1.17
2023-02-18T01:49:00.828Z,1.20
2023-02-18T01:51:36.087Z,1.21
2023-02-18T01:54:09.897Z,1.22
2023-02-18T01:56:58.392Z,1.24
2023-02-18T01:59:45.156Z,1.25
2023-02-18T02:02:15.657Z,1.27
2023-02-18T02:04:43.825Z,1.29
2023-02-18T02:07:12.570Z,1.30
2023-02-18T02:09:40.825Z,1.30
2023-02-18T02:12:12.041Z,1.30
2023-02-18T02:14:47.498Z,1.31
2023-02-18T02:17:38.202Z,1.32
2023-02-18T02:20:33.885Z,1.34
2023-02-18T02:23:04.903Z,1.36
2023-02-18T02:26:09.691Z,1.37
2023-02-18T02:29:04.895Z,1.37
2023-02-18T02:32:21.690Z,1.37
2023-02-18T02:35:08.936Z,1.37
2023-02-18T02:37:56.468Z,1.37
2023-02-18T02:40:27.669Z,1.37
2023-02-18T02:43:22.878Z,1.35
2023-02-18T02:45:53.346Z,1.33
2023-02-18T02:48:46.033Z,1.31
2023-02-18T02:51:22.397Z,1.28
2023-02-18T02:53:51.174Z,1.26
2023-02-18T02:56:24.093Z,1.24
2023-02-18T02:59:04.661Z,1.23
2023-02-18T03:02:14.667Z,1.23
2023-02-18T03:05:04.386Z,1.22
2023-02-18T03:07:47.998Z,1.21
2023-02-18T03:10:22.431Z,1.21
2023-02-18T03:13:00.634Z,1.20
2023-02-18T03:15:37.577Z,1.21
2023-02-18T03:18:15.488Z,1.21
2023-02-18T03:20:55.929Z,1.21
2023-02-18T03:23:28.609Z,1.22
2023-02-18T03:25:57.416Z,1.22
2023-02-18T03:28:27.411Z,1.22
2023-02-18T03:31:07.695Z,1.24
2023-02-18T03:33:47.199Z,1.25
2023-02-18T03:36:15.370Z,1.26
2023-02-18T03:38:55.865Z,1.28
2023-02-18T03:41:24.491Z,1.29
2023-02-18T03:43:54.016Z,1.30
2023-02-18T03:46:22.278Z,1.31
2023-02-18T03:48:50.536Z,1.31
2023-02-18T03:51:19.769Z,1.33
2023-02-18T03:53:48.041Z,1.34
2023-02-18T03:56:16.458Z,1.35
2023-02-18T03:58:44.789Z,1.36
2023-02-18T04:01:13.762Z,1.37
2023-02-18T04:03:43.026Z,1.39
2023-02-18T04:06:11.698Z,1.40
2023-02-18T04:08:39.918Z,1.40
2023-02-18T04:11:08.090Z,1.40
2023-02-18T04:13:36.480Z,1.41
2023-02-18T04:16:10.045Z,1.42
2023-02-18T04:18:39.247Z,1.42
2023-02-18T04:21:07.484Z,1.43
2023-02-18T04:23:36.130Z,1.44
2023-02-18T04:26:04.490Z,1.44
2023-02-18T04:28:32.759Z,1.46
2023-02-18T04:31:01.437Z,1.48
2023-02-18T04:33:29.773Z,1.50
2023-02-18T04:35:58.004Z,1.51
2023-02-18T04:38:26.484Z,1.52
2023-02-18T04:40:55.145Z,1.53
2023-02-18T04:43:23.449Z,1.55
2023-02-18T04:45:51.819Z,1.54
2023-02-18T04:48:22.433Z,1.56
2023-02-18T04:50:50.648Z,1.57
2023-02-18T04:53:18.843Z,1.58
2023-02-18T04:55:53.457Z,1.59
2023-02-18T04:58:21.779Z,1.60
2023-02-18T05:00:50.491Z,1.62
2023-02-18T05:03:18.802Z,1.63
2023-02-18T05:05:47.120Z,1.64
2023-02-18T05:08:16.407Z,1.65
2023-02-18T05:10:49.086Z,1.67
2023-02-18T05:13:20.884Z,1.70
2023-02-18T05:15:49.556Z,1.71
2023-02-18T05:18:19.175Z,1.73
2023-02-18T05:20:47.415Z,1.75
2023-02-18T05:23:16.852Z,1.78
2023-02-18T05:25:45.053Z,1.81
2023-02-18T05:28:14.846Z,1.83
2023-02-18T05:30:43.071Z,1.85
2023-02-18T05:33:12.298Z,1.88
2023-02-18T05:35:41.628Z,1.90
2023-02-18T05:38:10.270Z,1.93
2023-02-18T05:40:40.246Z,1.94
2023-02-18T05:43:08.534Z,1.96
2023-02-18T05:45:39.084Z,2.00
2023-02-18T05:48:07.304Z,2.01
2023-02-18T05:50:35.817Z,2.03
2023-02-18T05:53:04.170Z,2.05
2023-02-18T05:55:37.950Z,2.07
2023-02-18T05:58:06.398Z,2.09
2023-02-18T06:00:39.327Z,2.12
2023-02-18T06:03:07.674Z,2.15
2023-02-18T06:05:36.381Z,2.19
2023-02-18T06:08:05.246Z,2.22
2023-02-18T06:10:33.874Z,2.28
2023-02-18T06:13:04.264Z,2.33
2023-02-18T06:15:32.567Z,2.38
2023-02-18T06:18:06.241Z,2.44
2023-02-18T06:20:34.482Z,2.50
2023-02-18T06:23:03.165Z,2.54
2023-02-18T06:25:31.377Z,2.58
2023-02-18T06:28:02.555Z,2.62
2023-02-18T06:30:32.017Z,2.66
2023-02-18T06:33:00.539Z,2.70
2023-02-18T06:35:30.683Z,2.75
2023-02-18T06:37:59.037Z,2.81
2023-02-18T06:40:27.333Z,2.86
2023-02-18T06:42:56.011Z,2.90
2023-02-18T06:45:24.363Z,2.95
2023-02-18T06:47:53.274Z,3.00
2023-02-18T06:50:25.089Z,3.06
2023-02-18T06:52:53.507Z,3.13
2023-02-18T06:55:21.750Z,3.18
2023-02-18T06:57:50.895Z,3.24
2023-02-18T07:00:19.620Z,3.31
2023-02-18T07:02:47.931Z,3.44
2023-02-18T07:05:16.251Z,3.62
2023-02-18T07:07:45.626Z,3.79
2023-02-18T07:10:13.841Z,3.97
2023-02-18T07:12:42.104Z,4.17
2023-02-18T07:15:10.831Z,4.37
2023-02-18T07:17:39.255Z,4.54
2023-02-18T07:20:08.174Z,4.65
2023-02-18T07:22:36.508Z,4.71
2023-02-18T07:25:05.222Z,4.75
2023-02-18T07:27:34.185Z,4.77
2023-02-18T07:30:02.732Z,4.78
2023-02-18T07:32:31.783Z,4.78
2023-02-18T07:35:03.264Z,4.78
2023-02-18T07:37:32.984Z,4.80
2023-02-18T07:40:05.116Z,4.84
2023-02-18T07:42:33.797Z,4.89
2023-02-18T07:45:07.881Z,4.96
2023-02-18T07:47:36.321Z,5.03
2023-02-18T07:50:05.852Z,5.11
2023-02-18T07:52:37.752Z,5.18
2023-02-18T07:55:06.320Z,5.23
2023-02-18T07:57:54.546Z,5.29
2023-02-18T08:00:23.147Z,5.39
2023-02-18T08:02:51.470Z,5.47
2023-02-18T08:05:20.058Z,5.55
2023-02-18T08:07:48.971Z,5.62
2023-02-18T08:10:17.325Z,5.67
2023-02-18T08:12:45.610Z,5.71
2023-02-18T08:15:14.035Z,5.74
2023-02-18T08:17:42.371Z,5.77
2023-02-18T08:20:11.829Z,5.80
2023-02-18T08:22:40.124Z,5.83
2023-02-18T08:25:10.433Z,5.86
2023-02-18T08:27:43.929Z,5.90
2023-02-18T08:30:13.029Z,5.95
2023-02-18T08:32:41.356Z,5.99
2023-02-18T08:35:10.865Z,6.05
2023-02-18T08:37:52.607Z,6.13
2023-02-18T08:40:22.563Z,6.21
2023-02-18T08:42:50.875Z,6.28
2023-02-18T08:45:19.141Z,6.32
2023-02-18T08:48:16.212Z,6.36
2023-02-18T08:50:36.523Z,6.39
2023-02-18T08:53:05.039Z,6.39
2023-02-18T08:55:34.749Z,6.40
2023-02-18T08:58:04.882Z,6.41
2023-02-18T09:00:34.221Z,6.41
2023-02-18T09:03:03.384Z,6.42
2023-02-18T09:05:35.885Z,6.43
2023-02-18T09:08:06.388Z,6.45
2023-02-18T09:10:34.812Z,6.48
2023-02-18T09:13:03.882Z,6.52
2023-02-18T09:15:32.641Z,6.54
2023-02-18T09:18:03.294Z,6.55
2023-02-18T09:20:31.506Z,6.56
2023-02-18T09:23:01.766Z,6.57
2023-02-18T09:25:30.202Z,6.58
2023-02-18T09:27:58.638Z,6.59
2023-02-18T09:30:27.566Z,6.60
2023-02-18T09:32:55.766Z,6.61
2023-02-18T09:35:23.967Z,6.61
2023-02-18T09:37:52.268Z,6.60
2023-02-18T09:40:31.277Z,6.60
2023-02-18T09:43:00.167Z,6.59
2023-02-18T09:45:31.929Z,6.60
2023-02-18T09:48:00.164Z,6.59
2023-02-18T09:50:35.304Z,6.57
2023-02-18T09:53:04.357Z,6.56
2023-02-18T09:55:36.385Z,6.57
2023-02-18T09:58:23.322Z,6.60
2023-02-18T10:00:54.690Z,6.63
2023-02-18T10:03:44.528Z,6.68
2023-02-18T10:06:23.320Z,6.73
2023-02-18T10:08:52.544Z,6.77
2023-02-18T10:11:30.230Z,6.83
2023-02-18T10:14:01.229Z,6.86
2023-02-18T10:16:30.282Z,6.88
2023-02-18T10:19:00.435Z,6.90
2023-02-18T10:21:31.691Z,6.90
2023-02-18T10:24:20.123Z,6.89
2023-02-18T10:26:48.740Z,6.88
2023-02-18T10:29:21.407Z,6.87
2023-02-18T10:31:58.127Z,6.88
2023-02-18T10:34:43.351Z,6.89
2023-02-18T10:37:29.435Z,6.91
2023-02-18T10:40:13.032Z,6.94
2023-02-18T10:42:47.190Z,6.94
2023-02-18T10:45:25.169Z,6.93
2023-02-18T10:48:08.533Z,6.93
2023-02-18T10:50:44.291Z,6.92
2023-02-18T10:53:18.597Z,6.92
2023-02-18T10:55:49.587Z,6.93
2023-02-18T10:58:33.037Z,6.93
2023-02-18T11:01:05.345Z,6.95
2023-02-18T11:03:44.715Z,6.97
2023-02-18T11:06:20.051Z,7.02
2023-02-18T11:08:48.496Z,7.07
2023-02-18T11:11:28.731Z,7.10
2023-02-18T11:13:59.549Z,7.12
2023-02-18T11:16:37.684Z,7.14
2023-02-18T11:19:06.991Z,7.14
2023-02-18T11:21:37.160Z,7.14
2023-02-18T11:24:17.932Z,7.12
2023-02-18T11:26:46.133Z,7.11
2023-02-18T11:29:24.853Z,7.10
2023-02-18T11:31:55.109Z,7.11
2023-02-18T11:34:26.074Z,7.13
2023-02-18T11:36:54.866Z,7.20
2023-02-18T11:39:27.827Z,7.31
2023-02-18T11:42:03.806Z,7.42
2023-02-18T11:45:05.483Z,7.51
2023-02-18T11:47:36.077Z,7.61
2023-02-18T11:50:10.493Z,7.70
2023-02-18T11:52:48.051Z,7.77
2023-02-18T11:55:28.042Z,7.84
2023-02-18T11:58:02.468Z,7.90
2023-02-18T12:00:30.926Z,7.94
2023-02-18T12:03:02.367Z,7.96
2023-02-18T12:05:31.396Z,7.97
2023-02-18T12:08:01.925Z,7.98
2023-02-18T12:10:39.038Z,7.98
2023-02-18T12:13:08.481Z,7.98
2023-02-18T12:15:48.528Z,7.97
2023-02-18T12:18:59.113Z,7.95
2023-02-18T12:21:32.487Z,7.89
2023-02-18T12:24:00.744Z,7.83
2023-02-18T12:26:32.913Z,7.77
2023-02-18T12:29:05.436Z,7.73
2023-02-18T12:31:43.532Z,7.70
2023-02-18T12:34:37.154Z,7.67
2023-02-18T12:37:24.253Z,7.63
2023-02-18T12:40:14.880Z,7.61
2023-02-18T12:43:01.703Z,7.71
2023-02-18T12:45:39.863Z,7.89
2023-02-18T12:48:26.960Z,8.01
2023-02-18T12:51:32.968Z,8.03
2023-02-18T12:54:19.833Z,8.00
2023-02-18T12:57:09.926Z,7.94
2023-02-18T13:00:17.244Z,7.85
2023-02-18T13:02:48.633Z,7.77
2023-02-18T13:05:49.222Z,7.71
2023-02-18T13:08:36.417Z,7.61
2023-02-18T13:11:37.597Z,7.54
2023-02-18T13:14:10.273Z,7.48
2023-02-18T13:16:39.080Z,7.43
2023-02-18T13:19:20.626Z,7.38
2023-02-18T13:21:50.780Z,7.33
2023-02-18T13:24:35.672Z,7.28
2023-02-18T13:27:27.521Z,7.26
2023-02-18T13:30:17.453Z,7.23
2023-02-18T13:32:55.961Z,7.19
2023-02-18T13:35:35.299Z,7.18
2023-02-18T13:38:29.716Z,7.15
2023-02-18T13:40:59.312Z,7.12
2023-02-18T13:43:27.559Z,7.08
2023-02-18T13:46:17.579Z,7.04
2023-02-18T13:48:47.556Z,7.00
2023-02-18T13:51:42.651Z,6.96
2023-02-18T13:54:21.133Z,6.91
2023-02-18T13:56:54.997Z,6.86
2023-02-18T13:59:59.544Z,6.82
2023-02-18T14:02:27.988Z,6.77
2023-02-18T14:05:09.485Z,6.70
2023-02-18T14:07:43.741Z,6.63
2023-02-18T14:10:16.599Z,6.58
2023-02-18T14:12:58.236Z,6.56
2023-02-18T14:15:26.709Z,6.55
2023-02-18T14:18:13.853Z,6.56
2023-02-18T14:20:46.977Z,6.54
2023-02-18T14:23:18.306Z,6.52
2023-02-18T14:26:05.189Z,6.49
2023-02-18T14:28:34.521Z,6.47
2023-02-18T14:31:12.194Z,6.43
2023-02-18T14:34:01.862Z,6.40
2023-02-18T14:36:45.686Z,6.36
2023-02-18T14:39:39.326Z,6.32
2023-02-18T14:42:27.027Z,6.27
2023-02-18T14:45:18.780Z,6.23
2023-02-18T14:48:01.991Z,6.20
2023-02-18T14:50:31.019Z,6.17
2023-02-18T14:53:03.732Z,6.15
2023-02-18T14:55:37.724Z,6.12
2023-02-18T14:58:13.187Z,6.11
2023-02-18T15:00:43.046Z,6.08
2023-02-18T15:03:14.269Z,6.05
2023-02-18T15:05:43.265Z,6.03
2023-02-18T15:08:20.344Z,6.01
2023-02-18T15:10:57.146Z,5.99
2023-02-18T15:13:36.204Z,5.97
2023-02-18T15:16:06.469Z,5.95
2023-02-18T15:18:56.008Z,5.95
2023-02-18T15:21:28.340Z,5.93
2023-02-18T15:24:08.605Z,5.93
2023-02-18T15:26:37.985Z,5.91
2023-02-18T15:29:06.704Z,5.90
2023-02-18T15:31:38.928Z,5.89
2023-02-18T15:34:28.155Z,5.89
2023-02-18T15:36:57.469Z,5.88
2023-02-18T15:39:25.840Z,5.88
2023-02-18T15:42:15.330Z,5.87
2023-02-18T15:44:48.455Z,5.87
2023-02-18T15:47:17.686Z,5.86
2023-02-18T15:49:47.713Z,5.86
2023-02-18T15:52:16.103Z,5.84
2023-02-18T15:54:44.742Z,5.83
2023-02-18T15:57:14.658Z,5.82
2023-02-18T15:59:47.694Z,5.80
2023-02-18T16:02:23.836Z,5.78
2023-02-18T16:05:05.006Z,5.77
2023-02-18T16:07:58.089Z,5.75
2023-02-18T16:10:41.976Z,5.73
2023-02-18T16:13:15.755Z,5.71
2023-02-18T16:15:45.485Z,5.70
2023-02-18T16:18:37.173Z,5.67
2023-02-18T16:21:43.893Z,5.66
2023-02-18T16:24:27.558Z,5.62
2023-02-18T16:27:00.107Z,5.60
2023-02-18T16:29:36.417Z,5.58
2023-02-18T16:32:04.991Z,5.55
2023-02-18T16:34:33.486Z,5.54
2023-02-18T16:37:21.280Z,5.52
2023-02-18T16:39:52.075Z,5.51
2023-02-18T16:42:22.234Z,5.49
2023-02-18T16:44:52.065Z,5.48
2023-02-18T16:47:20.373Z,5.47
2023-02-18T16:49:50.124Z,5.46
2023-02-18T16:52:19.583Z,5.46
2023-02-18T16:54:50.410Z,5.44
2023-02-18T16:57:18.727Z,5.43
2023-02-18T16:59:47.591Z,5.42
2023-02-18T17:02:20.162Z,5.41
2023-02-18T17:04:48.555Z,5.40
2023-02-18T17:07:16.730Z,5.39
2023-02-18T17:09:47.305Z,5.37
2023-02-18T17:12:15.486Z,5.38
2023-02-18T17:14:43.827Z,5.36
2023-02-18T17:17:13.670Z,5.35
2023-02-18T17:19:41.953Z,5.33
2023-02-18T17:22:12.681Z,5.31
2023-02-18T17:24:40.862Z,5.28
2023-02-18T17:27:11.206Z,5.27
2023-02-18T17:29:39.585Z,5.24
2023-02-18T17:32:11.729Z,5.21
2023-02-18T17:34:41.274Z,5.20
2023-02-18T17:37:12.953Z,5.19
2023-02-18T17:39:42.366Z,5.17
2023-02-18T17:42:14.949Z,5.16
2023-02-18T17:44:44.973Z,5.14
2023-02-18T17:47:13.294Z,5.13
2023-02-18T17:49:41.584Z,5.12
2023-02-18T17:52:29.499Z,5.12
2023-02-18T17:54:58.284Z,5.13
2023-02-18T17:57:26.517Z,5.14
2023-02-18T17:59:57.426Z,5.15
2023-02-18T18:02:27.845Z,5.18
2023-02-18T18:04:56.459Z,5.20
2023-02-18T18:07:24.710Z,5.22
2023-02-18T18:09:53.917Z,5.23
2023-02-18T18:12:22.225Z,5.22
2023-02-18T18:14:52.975Z,5.22
2023-02-18T18:17:24.044Z,5.22
2023-02-18T18:19:53.092Z,5.21
2023-02-18T18:22:21.310Z,5.20
2023-02-18T18:24:50.383Z,5.19
2023-02-18T18:27:18.564Z,5.18
2023-02-18T18:29:47.290Z,5.16
2023-02-18T18:32:16.684Z,5.14
2023-02-18T18:34:49.106Z,5.13
2023-02-18T18:37:17.632Z,5.11
2023-02-18T18:39:46.047Z,5.10
2023-02-18T18:42:14.324Z,5.10
2023-02-18T18:44:42.533Z,5.09
2023-02-18T18:47:10.747Z,5.08
2023-02-18T18:49:39.357Z,5.07
2023-02-18T18:52:08.941Z,5.06
2023-02-18T18:54:41.352Z,5.05
2023-02-18T18:57:09.525Z,5.04
2023-02-18T18:59:37.750Z,5.04
2023-02-18T19:02:10.187Z,5.03
2023-02-18T19:04:38.532Z,5.03
2023-02-18T19:07:07.999Z,5.04
2023-02-18T19:09:36.170Z,5.03
2023-02-18T19:12:04.795Z,5.03
2023-02-18T19:14:33.805Z,5.02
2023-02-18T19:17:02.728Z,5.03
2023-02-18T19:19:32.390Z,5.03
2023-02-18T19:22:00.606Z,5.02
2023-02-18T19:24:29.563Z,5.02
2023-02-18T19:26:57.882Z,5.02
2023-02-18T19:29:26.084Z,5.03
2023-02-18T19:31:54.932Z,5.02
2023-02-18T19:34:24.566Z,5.02
2023-02-18T19:36:53.110Z,5.02
2023-02-18T19:39:23.273Z,5.01
2023-02-18T19:41:52.040Z,5.02
2023-02-18T19:44:20.405Z,5.02
2023-02-18T19:46:49.227Z,5.01
2023-02-18T19:49:17.664Z,5.02
2023-02-18T19:51:46.462Z,5.01
2023-02-18T19:54:15.065Z,5.01
2023-02-18T19:56:43.424Z,5.01
2023-02-18T19:59:11.675Z,5.01
2023-02-18T20:01:40.051Z,5.02
2023-02-18T20:04:08.480Z,5.02
2023-02-18T20:06:37.415Z,5.01
2023-02-18T20:09:05.698Z,5.01
2023-02-18T20:11:34.538Z,5.01
2023-02-18T20:14:04.370Z,5.01
2023-02-18T20:16:32.802Z,5.00
2023-02-18T20:19:01.053Z,5.00
2023-02-18T20:21:30.727Z,5.00
2023-02-18T20:24:01.253Z,5.00
2023-02-18T20:26:29.810Z,5.00
2023-02-18T20:28:58.750Z,4.99
2023-02-18T20:31:27.289Z,5.00
2023-02-18T20:33:57.183Z,4.99
2023-02-18T20:36:25.999Z,4.99
2023-02-18T20:38:54.149Z,4.99
2023-02-18T20:41:22.443Z,4.99
2023-02-18T20:43:57.786Z,4.98
2023-02-18T20:46:28.395Z,4.97
2023-02-18T20:48:56.932Z,4.95
2023-02-18T20:51:25.213Z,4.94
2023-02-18T20:53:53.864Z,4.93
2023-02-18T20:56:22.169Z,4.93
2023-02-18T20:58:50.488Z,4.92
2023-02-18T21:01:19.447Z,4.90
2023-02-18T21:03:48.271Z,4.89
2023-02-18T21:06:19.827Z,4.87
2023-02-18T21:08:50.554Z,4.85
2023-02-18T21:11:22.468Z,4.84
2023-02-18T21:13:51.750Z,4.83
2023-02-18T21:16:20.212Z,4.82
2023-02-18T21:18:50.226Z,4.80
2023-02-18T21:21:20.390Z,4.79
2023-02-18T21:23:48.533Z,4.78
2023-02-18T21:26:19.302Z,4.76
2023-02-18T21:28:52.330Z,4.76
2023-02-18T21:31:26.394Z,4.75
2023-02-18T21:33:54.898Z,4.74
2023-02-18T21:36:23.249Z,4.74
2023-02-18T21:38:55.188Z,4.73
2023-02-18T21:41:24.492Z,4.73
2023-02-18T21:43:53.068Z,4.72
2023-02-18T21:46:22.233Z,4.71
2023-02-18T21:49:02.904Z,4.70
2023-02-18T21:51:59.173Z,4.69
2023-02-18T21:54:37.117Z,4.68
2023-02-18T21:57:06.539Z,4.68
2023-02-18T21:59:35.664Z,4.68
2023-02-18T22:02:04.473Z,4.67
2023-02-18T22:04:33.989Z,4.66
2023-02-18T22:07:03.668Z,4.66
2023-02-18T22:09:33.258Z,4.65
2023-02-18T22:12:02.145Z,4.64
2023-02-18T22:14:31.860Z,4.64
2023-02-18T22:17:00.346Z,4.63
2023-02-18T22:19:28.736Z,4.63
2023-02-18T22:21:57.591Z,4.63
2023-02-18T22:24:29.234Z,4.62
2023-02-18T22:26:57.690Z,4.60
2023-02-18T22:29:25.878Z,4.59
2023-02-18T22:31:54.293Z,4.58
2023-02-18T22:34:22.817Z,4.57
2023-02-18T22:36:51.397Z,4.56
2023-02-18T22:39:19.895Z,4.56
2023-02-18T22:41:49.013Z,4.56
2023-02-18T22:44:17.468Z,4.54
2023-02-18T22:46:46.070Z,4.53
2023-02-18T22:49:14.414Z,4.52
2023-02-18T22:51:44.162Z,4.50
2023-02-18T22:54:14.861Z,4.49
2023-02-18T22:56:43.425Z,4.48
2023-02-18T22:59:12.675Z,4.47
2023-02-18T23:01:42.487Z,4.46
2023-02-18T23:04:12.309Z,4.45
2023-02-18T23:06:41.924Z,4.44
2023-02-18T23:09:18.239Z,4.43
2023-02-18T23:11:50.033Z,4.42
2023-02-18T23:14:23.000Z,4.42
2023-02-18T23:17:14.880Z,4.41
2023-02-18T23:19:47.910Z,4.40
2023-02-18T23:22:19.810Z,4.39
2023-02-18T23:24:49.605Z,4.38
2023-02-18T23:27:18.009Z,4.37
2023-02-18T23:29:46.515Z,4.36
2023-02-18T23:32:14.704Z,4.35
2023-02-18T23:34:43.592Z,4.34
2023-02-18T23:37:11.828Z,4.32
2023-02-18T23:39:40.487Z,4.30
2023-02-18T23:42:10.785Z,4.30
2023-02-18T23:44:40.825Z,4.29
2023-02-18T23:47:08.994Z,4.30
2023-02-18T23:49:37.876Z,4.30
2023-02-18T23:52:06.617Z,4.31
2023-02-18T23:54:35.248Z,4.34
2023-02-18T23:57:03.767Z,4.35
2023-02-18T23:59:33.152Z,4.35
